Terminal Aerodrome Forecast
Issued by NWS

Home | Current Version | Previous Version | Text Only | Print | Product List | Glossary On
Versions: 1 2 3 4 5 6 7 8 9 10 11 12 13 14 15
000
FTUS45 KRIW 220500
TAFRKS
TAF
KRKS 220526Z 2206/2306 21008KT P6SM VCSH SCT040 BKN060
     FM221200 25010KT P6SM -SHRA SCT030 OVC050
     FM221800 27016G26KT P6SM VCSH SCT040 BKN060
     FM230100 27013KT P6SM SCT045 BKN080
     FM230500 25010KT P6SM BKN080=

USA.gov is the U.S. government's official web portal to all federal, state and local government web resources and services.